Time;durP1;ratioP1;P1;durP2;ratioP2;P2;SDS_P1;SDS_P2;PMS_P1;PMS_P2;Temp;Humidity;BMP_temperature;BMP_pressure;BME280_temperature;BME280_humidity;BME280_pressure;Samples;Min_cycle;Max_cycle;Signal;HPM_P1;HPM_P2
2023/03/18 00:01:22;;;;;;;26.40;17.40;;;;;;;4.94;43.95;100482.23;110940;1260;21978;-84
2023/03/18 00:03:53;;;;;;;24.30;16.60;;;;;;;4.94;43.86;100477.08;110890;1260;21982;-82
2023/03/18 00:06:29;;;;;;;25.60;16.10;;;;;;;4.92;43.91;100475.70;110794;1260;22783;-82
2023/03/18 00:09:00;;;;;;;26.50;16.60;;;;;;;4.90;43.94;100470.91;110149;1265;21970;-82
2023/03/18 00:11:30;;;;;;;29.70;17.90;;;;;;;4.91;43.97;100470.02;110473;1265;21996;-82
2023/03/18 00:14:10;;;;;;;29.90;16.60;;;;;;;4.92;43.91;100471.41;110155;1270;21904;-83
2023/03/18 00:16:51;;;;;;;23.70;14.70;;;;;;;4.89;43.99;100468.33;109698;1270;21952;-83
2023/03/18 00:19:26;;;;;;;30.30;16.40;;;;;;;4.88;44.15;100467.65;109678;1270;22467;-83
2023/03/18 00:22:03;;;;;;;23.20;15.20;;;;;;;4.89;44.21;100466.27;109774;1270;24409;-83
2023/03/18 00:24:41;;;;;;;23.30;14.40;;;;;;;4.89;44.16;100465.56;109382;1275;21984;-82
2023/03/18 00:27:12;;;;;;;26.40;15.80;;;;;;;4.90;44.15;100465.39;109497;1272;22073;-83
2023/03/18 00:29:54;;;;;;;24.40;15.90;;;;;;;4.90;44.17;100470.55;109636;1272;21978;-84
2023/03/18 00:32:33;;;;;;;23.20;15.70;;;;;;;4.88;44.15;100466.09;109533;1272;22011;-83
2023/03/18 00:35:13;;;;;;;24.20;15.40;;;;;;;4.88;44.23;100464.20;109609;1272;22004;-84
2023/03/18 00:37:57;;;;;;;25.40;15.80;;;;;;;4.87;44.19;100461.11;109306;1272;24290;-83
2023/03/18 00:40:51;;;;;;;25.60;16.40;;;;;;;4.85;44.18;100452.86;109564;1272;23071;-83
2023/03/18 00:43:51;;;;;;;26.20;15.70;;;;;;;4.85;44.36;100448.56;110124;1265;22031;-82
2023/03/18 00:46:38;;;;;;;22.40;15.10;;;;;;;4.82;44.34;100448.43;109879;1271;22162;-82
2023/03/18 00:49:17;;;;;;;24.90;15.20;;;;;;;4.81;44.45;100444.81;109548;1274;22741;-82
2023/03/18 00:51:52;;;;;;;24.20;15.70;;;;;;;4.80;44.48;100440.88;109334;1270;21986;-83
2023/03/18 00:54:32;;;;;;;18.40;14.40;;;;;;;4.78;44.47;100440.89;109346;1275;23638;-83
2023/03/18 00:57:03;;;;;;;24.90;15.70;;;;;;;4.76;44.41;100439.02;109555;1270;23716;-84
2023/03/18 00:59:32;;;;;;;25.50;16.60;;;;;;;4.74;44.59;100436.29;109362;1275;22992;-84
2023/03/18 01:02:08;;;;;;;21.60;14.10;;;;;;;4.73;44.53;100436.47;109415;1274;24043;-82
2023/03/18 01:04:37;;;;;;;22.20;15.80;;;;;;;4.71;44.60;100439.06;109510;1270;21977;-83
2023/03/18 01:07:06;;;;;;;23.00;15.80;;;;;;;4.71;44.64;100435.09;110199;1265;22828;-83
2023/03/18 01:09:45;;;;;;;23.30;16.80;;;;;;;4.70;44.67;100428.91;110340;1266;22839;-83
2023/03/18 01:12:24;;;;;;;24.10;16.70;;;;;;;4.69;44.71;100425.98;110219;1266;21978;-83
2023/03/18 01:14:58;;;;;;;26.40;16.90;;;;;;;4.67;44.79;100425.32;109915;1266;22389;-82
2023/03/18 01:17:34;;;;;;;26.80;18.10;;;;;;;4.63;44.94;100427.95;110162;1260;21954;-83
2023/03/18 01:20:10;;;;;;;22.60;15.40;;;;;;;4.60;45.03;100431.44;110692;1254;21981;-85
2023/03/18 01:22:49;;;;;;;22.70;16.00;;;;;;;4.60;45.07;100432.65;110838;1260;21953;-81
2023/03/18 01:25:19;;;;;;;22.30;15.60;;;;;;;4.59;45.05;100426.98;111056;1259;23630;-81
2023/03/18 01:27:51;;;;;;;33.50;17.80;;;;;;;4.59;45.05;100429.05;110936;1260;22395;-82
2023/03/18 01:30:22;;;;;;;27.80;17.90;;;;;;;4.59;45.01;100429.22;110321;1264;21915;-83
2023/03/18 01:32:56;;;;;;;28.80;17.00;;;;;;;4.58;44.94;100426.65;110357;1264;22005;-82
2023/03/18 01:35:31;;;;;;;25.40;16.40;;;;;;;4.57;44.94;100425.80;109546;1271;21995;-81
2023/03/18 01:38:04;;;;;;;28.30;16.90;;;;;;;4.55;45.04;100425.30;109717;1270;22443;-83
2023/03/18 01:40:44;;;;;;;21.30;15.40;;;;;;;4.54;45.10;100432.20;109181;1276;21995;-82
2023/03/18 01:43:31;;;;;;;26.40;16.60;;;;;;;4.54;45.09;100433.08;109191;1271;22051;-83
2023/03/18 01:46:39;;;;;;;25.70;16.70;;;;;;;4.53;45.03;100436.36;108991;1277;23855;-84
2023/03/18 01:49:14;;;;;;;25.00;15.50;;;;;;;4.50;45.20;100437.95;109634;1273;22004;-82
2023/03/18 01:52:01;;;;;;;27.00;16.80;;;;;;;4.47;45.18;100436.95;109019;1273;22326;-84
2023/03/18 01:54:42;;;;;;;27.70;16.10;;;;;;;4.47;45.18;100441.08;109564;1271;22044;-82
2023/03/18 01:57:22;;;;;;;27.80;15.90;;;;;;;4.47;45.22;100436.08;109634;1271;24320;-83
2023/03/18 01:59:56;;;;;;;24.80;16.20;;;;;;;4.44;45.14;100435.25;109990;1257;22272;-82
2023/03/18 02:02:52;;;;;;;24.10;15.40;;;;;;;4.41;45.30;100435.29;109973;1269;23626;-83
2023/03/18 02:05:28;;;;;;;21.00;15.80;;;;;;;4.39;45.31;100437.38;109695;1269;22003;-82
2023/03/18 02:08:01;;;;;;;25.60;16.40;;;;;;;4.38;45.47;100438.25;109904;1269;22000;-83
2023/03/18 02:10:41;;;;;;;25.20;15.70;;;;;;;4.35;45.49;100439.83;110114;1252;22517;-83
2023/03/18 02:13:19;;;;;;;24.60;16.30;;;;;;;4.32;45.59;100441.75;110389;1264;22741;-82
2023/03/18 02:16:12;;;;;;;28.10;16.90;;;;;;;4.30;45.54;100441.09;110384;1264;24950;-81
2023/03/18 02:19:06;;;;;;;30.20;16.90;;;;;;;4.25;45.69;100438.20;109815;1270;21976;-83
2023/03/18 02:22:25;;;;;;;25.80;18.60;;;;;;;4.22;45.77;100440.14;109659;1270;22051;-83
2023/03/18 02:25:36;;;;;;;26.50;18.50;;;;;;;4.17;45.87;100437.61;110314;1266;22047;-82
2023/03/18 02:28:20;;;;;;;26.70;18.80;;;;;;;4.13;46.03;100432.14;110119;1266;23780;-83
2023/03/18 02:31:02;;;;;;;26.50;18.30;;;;;;;4.11;46.14;100436.46;110021;1266;22312;-83
2023/03/18 02:33:42;;;;;;;28.70;17.30;;;;;;;4.08;46.23;100437.17;110269;1267;22249;-83
2023/03/18 02:36:23;;;;;;;24.30;16.30;;;;;;;4.06;46.19;100435.64;109596;1271;22768;-83
2023/03/18 02:38:59;;;;;;;27.70;20.40;;;;;;;4.03;46.28;100433.42;109655;1271;21975;-82
2023/03/18 02:41:38;;;;;;;27.00;18.30;;;;;;;4.01;46.33;100432.77;109724;1271;21985;-82
2023/03/18 02:44:15;;;;;;;28.70;19.60;;;;;;;3.99;46.28;100432.62;110195;1265;23374;-82
2023/03/18 02:47:11;;;;;;;32.20;20.20;;;;;;;3.96;46.32;100430.42;110424;1264;23642;-84
2023/03/18 02:49:45;;;;;;;29.40;18.40;;;;;;;3.93;46.58;100435.60;109688;1270;22010;-85
2023/03/18 02:52:27;;;;;;;34.50;20.90;;;;;;;3.92;46.64;100438.54;109728;1270;23696;-84
2023/03/18 02:54:58;;;;;;;32.10;20.50;;;;;;;3.90;46.64;100437.87;110168;1265;21995;-84
2023/03/18 02:57:27;;;;;;;24.40;18.00;;;;;;;3.88;46.70;100445.63;110212;1265;21970;-84
2023/03/18 02:59:59;;;;;;;29.40;19.60;;;;;;;3.86;46.80;100438.24;109725;1269;21955;-83
2023/03/18 03:02:43;;;;;;;26.20;18.10;;;;;;;3.81;46.87;100437.94;109777;1268;22446;-83
2023/03/18 03:05:35;;;;;;;29.40;18.80;;;;;;;3.76;47.02;100439.19;109894;1270;23730;-83
2023/03/18 03:08:10;;;;;;;28.80;19.70;;;;;;;3.74;47.13;100439.56;110106;1266;23786;-82
2023/03/18 03:10:46;;;;;;;29.90;18.00;;;;;;;3.71;47.17;100440.10;110106;1266;21973;-82
2023/03/18 03:13:30;;;;;;;28.20;18.80;;;;;;;3.67;47.29;100443.05;108865;1251;2164344;-84
2023/03/18 03:16:05;;;;;;;28.00;18.80;;;;;;;3.63;47.46;100440.15;110434;1264;23785;-83
2023/03/18 03:18:41;;;;;;;26.90;19.20;;;;;;;3.59;47.51;100441.56;110805;1260;23116;-83
2023/03/18 03:21:16;;;;;;;27.70;19.50;;;;;;;3.55;47.71;100439.36;110393;1265;21984;-83
2023/03/18 03:23:53;;;;;;;27.60;19.50;;;;;;;3.52;47.74;100439.03;110394;1265;22021;-83
2023/03/18 03:26:33;;;;;;;26.40;18.60;;;;;;;3.49;47.82;100437.16;110006;1266;22452;-84
2023/03/18 03:29:11;;;;;;;29.40;18.20;;;;;;;3.44;47.93;100436.00;110089;1266;22750;-83
2023/03/18 03:31:44;;;;;;;28.00;18.60;;;;;;;3.41;48.09;100437.91;110059;1265;23029;-82
2023/03/18 03:34:25;;;;;;;29.90;19.70;;;;;;;3.38;48.12;100439.48;109525;1272;21960;-85
2023/03/18 03:37:13;;;;;;;30.70;20.80;;;;;;;3.32;48.21;100435.05;109156;1277;24202;-83
2023/03/18 03:40:19;;;;;;;25.50;17.20;;;;;;;3.27;48.31;100437.49;109402;1271;21992;-82
2023/03/18 03:42:53;;;;;;;28.30;18.40;;;;;;;3.26;48.36;100443.17;109310;1274;22015;-84
2023/03/18 03:45:25;;;;;;;26.50;19.20;;;;;;;3.24;48.50;100444.22;109436;1275;23058;-83
2023/03/18 03:48:08;;;;;;;36.50;25.70;;;;;;;3.21;48.60;100443.02;109303;1274;23727;-85
2023/03/18 03:50:49;;;;;;;36.90;25.10;;;;;;;3.19;48.65;100443.56;109283;1275;21980;-85
2023/03/18 03:53:17;;;;;;;;;;;;;;;3.16;48.59;100442.71;109552;1270;23134;-82
2023/03/18 03:55:46;;;;;;;34.10;22.20;;;;;;;3.06;48.92;100443.63;110038;1265;23702;-81
2023/03/18 03:58:15;;;;;;;30.80;22.70;;;;;;;3.07;48.95;100443.63;110298;1265;24266;-81
2023/03/18 04:00:44;;;;;;;39.30;25.40;;;;;;;3.05;49.11;100443.47;109820;1265;21972;-83
2023/03/18 04:03:32;;;;;;;33.20;23.60;;;;;;;3.03;49.25;100440.55;110535;1265;23906;-83
2023/03/18 04:06:11;;;;;;;43.00;30.50;;;;;;;2.97;49.38;100442.98;110502;1265;22156;-83
2023/03/18 04:08:55;;;;;;;39.50;28.00;;;;;;;2.92;49.55;100440.61;110510;1264;22294;-83
2023/03/18 04:11:29;;;;;;;50.20;30.70;;;;;;;2.89;49.55;100439.08;110290;1265;21996;-83
2023/03/18 04:14:02;;;;;;;39.50;24.10;;;;;;;2.88;49.64;100441.84;110382;1265;22007;-82
2023/03/18 04:16:36;;;;;;;29.70;21.90;;;;;;;2.86;49.68;100445.63;110394;1265;21996;-83
2023/03/18 04:19:06;;;;;;;36.20;22.40;;;;;;;2.84;49.80;100444.44;110687;1260;23709;-82
2023/03/18 04:21:41;;;;;;;34.40;21.50;;;;;;;2.85;49.74;100444.08;111018;1260;23764;-82
2023/03/18 04:24:23;;;;;;;35.20;22.30;;;;;;;2.83;49.81;100442.55;110888;1257;21978;-81
2023/03/18 04:27:02;;;;;;;48.30;30.00;;;;;;;2.85;49.98;100443.92;110979;1259;21962;-81
2023/03/18 04:29:42;;;;;;;288.90;187.60;;;;;;;2.87;49.97;100442.87;111071;1259;21978;-84
2023/03/18 04:32:13;;;;;;;66.80;43.30;;;;;;;2.88;49.90;100445.45;111071;1259;21974;-85
2023/03/18 04:34:45;;;;;;;59.40;41.70;;;;;;;2.88;49.95;100449.05;110640;1259;21987;-85
2023/03/18 04:37:37;;;;;;;40.00;27.50;;;;;;;2.87;50.00;100450.44;110840;1259;21979;-85
2023/03/18 04:40:17;;;;;;;38.60;28.10;;;;;;;2.88;49.97;100452.33;111221;1258;23603;-84
2023/03/18 04:42:48;;;;;;;45.00;30.40;;;;;;;2.88;49.99;100452.50;110984;1259;21959;-81
2023/03/18 04:45:23;;;;;;;38.70;27.40;;;;;;;2.88;49.98;100449.40;110505;1266;24333;-83
2023/03/18 04:47:55;;;;;;;35.80;27.00;;;;;;;2.88;49.95;100447.15;110247;1266;24335;-81
2023/03/18 04:50:27;;;;;;;46.90;32.80;;;;;;;2.88;50.05;100449.39;110401;1266;22719;-81
2023/03/18 04:53:02;;;;;;;43.70;28.00;;;;;;;2.88;50.05;100447.68;109976;1265;21989;-82
2023/03/18 04:55:36;;;;;;;45.70;29.30;;;;;;;2.89;50.01;100450.43;110628;1265;22742;-82
2023/03/18 04:58:18;;;;;;;37.70;26.80;;;;;;;2.88;49.99;100447.33;110385;1265;24350;-82
2023/03/18 05:01:03;;;;;;;34.60;24.50;;;;;;;2.86;50.11;100442.70;110564;1265;21930;-84
2023/03/18 05:03:42;;;;;;;31.50;23.60;;;;;;;2.87;50.22;100444.92;110764;1259;22719;-83
2023/03/18 05:06:28;;;;;;;41.70;26.80;;;;;;;2.87;50.20;100445.45;111074;1260;22973;-82
2023/03/18 05:09:05;;;;;;;34.10;23.40;;;;;;;2.86;50.17;100445.46;110786;1260;22798;-83
2023/03/18 05:11:39;;;;;;;33.80;21.90;;;;;;;2.85;50.34;100452.33;110832;1256;21980;-82
2023/03/18 05:14:33;;;;;;;27.20;19.10;;;;;;;2.83;50.36;100460.41;110932;1260;22022;-82
2023/03/18 05:17:08;;;;;;;26.90;19.30;;;;;;;2.85;50.38;100456.63;110438;1266;22730;-83
2023/03/18 05:19:46;;;;;;;30.70;21.80;;;;;;;2.85;50.64;100459.55;109935;1266;22031;-83
2023/03/18 05:22:26;;;;;;;27.70;20.00;;;;;;;2.85;50.62;100457.66;109789;1267;23101;-82
2023/03/18 05:25:14;;;;;;;26.00;19.50;;;;;;;2.86;50.61;100459.21;109477;1272;21989;-85
2023/03/18 05:27:54;;;;;;;32.30;20.60;;;;;;;2.89;50.71;100459.55;109906;1270;21977;-83
2023/03/18 05:30:30;;;;;;;29.30;19.80;;;;;;;2.93;50.56;100460.03;109780;1270;21981;-83
2023/03/18 05:33:08;;;;;;;26.60;19.60;;;;;;;2.96;50.53;100462.77;109197;1275;23708;-82
2023/03/18 05:35:49;;;;;;;27.60;19.70;;;;;;;3.01;50.62;100460.17;109643;1264;21985;-83
2023/03/18 05:38:20;;;;;;;33.90;20.40;;;;;;;3.07;50.43;100460.83;109688;1271;21988;-82
2023/03/18 05:40:49;;;;;;;29.80;19.80;;;;;;;3.13;50.46;100459.59;109579;1270;23608;-82
2023/03/18 05:43:38;;;;;;;30.70;22.10;;;;;;;3.18;50.42;100455.61;109725;1270;23807;-83
2023/03/18 05:46:28;;;;;;;32.60;20.50;;;;;;;3.23;50.39;100455.23;109696;1270;23072;-81
2023/03/18 05:49:36;;;;;;;31.10;20.30;;;;;;;3.29;50.24;100455.53;109374;1274;22442;-85
2023/03/18 05:52:35;;;;;;;30.10;21.60;;;;;;;3.34;50.17;100453.61;109616;1270;24382;-84
2023/03/18 05:55:22;;;;;;;29.10;19.80;;;;;;;3.41;50.17;100452.70;109353;1273;22126;-83
2023/03/18 05:58:05;;;;;;;30.90;21.10;;;;;;;3.55;50.11;100452.95;109634;1273;22736;-79
2023/03/18 06:00:47;;;;;;;29.90;20.90;;;;;;;3.66;50.03;100453.20;109442;1273;23602;-83
2023/03/18 06:03:19;;;;;;;34.70;23.40;;;;;;;3.77;49.63;100456.39;109320;1275;21969;-84
2023/03/18 06:05:49;;;;;;;32.40;23.10;;;;;;;3.85;49.48;100450.30;109805;1268;22039;-84
2023/03/18 06:08:18;;;;;;;32.90;21.60;;;;;;;3.94;49.28;100449.20;109797;1261;23773;-82
2023/03/18 06:11:00;;;;;;;28.50;20.00;;;;;;;4.01;49.11;100451.55;109672;1273;23806;-81
2023/03/18 06:13:41;;;;;;;27.10;18.90;;;;;;;4.06;49.02;100453.05;109843;1266;23730;-78
2023/03/18 06:16:32;;;;;;;32.90;24.60;;;;;;;4.15;48.84;100452.09;110180;1266;21985;-78
2023/03/18 06:19:07;;;;;;;28.50;21.50;;;;;;;4.24;48.76;100450.62;109507;1271;21984;-78
2023/03/18 06:21:38;;;;;;;29.90;20.80;;;;;;;4.32;48.42;100449.16;109613;1271;21947;-78
2023/03/18 06:24:12;;;;;;;30.70;21.90;;;;;;;4.39;48.27;100451.33;109532;1271;22009;-80
2023/03/18 06:26:43;;;;;;;26.50;19.50;;;;;;;4.48;48.23;100450.89;109487;1272;22059;-78
2023/03/18 06:29:26;;;;;;;43.20;27.90;;;;;;;4.55;48.09;100452.88;109779;1271;21991;-78
2023/03/18 06:32:00;;;;;;;31.50;23.20;;;;;;;4.61;47.97;100453.67;108990;1277;23663;-80
2023/03/18 06:34:41;;;;;;;31.20;20.20;;;;;;;4.73;48.09;100457.33;108850;1278;24334;-79
2023/03/18 06:37:16;;;;;;;28.00;19.40;;;;;;;4.88;47.80;100461.45;109115;1274;22003;-80
2023/03/18 06:39:51;;;;;;;31.80;21.60;;;;;;;5.01;47.55;100460.08;109513;1267;21977;-80
2023/03/18 06:42:22;;;;;;;40.70;26.40;;;;;;;5.14;47.50;100455.58;109835;1266;22095;-80
2023/03/18 06:45:06;;;;;;;28.00;20.00;;;;;;;5.30;47.23;100458.13;109843;1267;22753;-80
2023/03/18 06:47:52;;;;;;;26.10;17.70;;;;;;;5.44;46.95;100458.96;109997;1267;23599;-78
2023/03/18 06:50:30;;;;;;;26.00;18.10;;;;;;;5.60;46.66;100460.08;110625;1260;21983;-79
2023/03/18 06:53:02;;;;;;;27.00;18.00;;;;;;;5.77;46.44;100457.05;110887;1259;22952;-80
2023/03/18 06:55:32;;;;;;;;;;;;;;;5.99;46.45;100455.67;110805;1259;23705;-78
2023/03/18 06:58:04;;;;;;;26.90;17.80;;;;;;;6.21;46.24;100455.83;110130;1267;23692;-79
2023/03/18 07:00:48;;;;;;;24.50;16.90;;;;;;;6.52;45.90;100455.42;109904;1267;23612;-86
2023/03/18 07:03:21;;;;;;;31.60;21.60;;;;;;;6.91;45.55;100453.93;109738;1267;24372;-80
2023/03/18 07:05:54;;;;;;;30.40;21.50;;;;;;;7.27;44.80;100450.04;110253;1267;21981;-80
2023/03/18 07:08:23;;;;;;;30.40;22.00;;;;;;;7.55;44.14;100450.09;109750;1267;21988;-79
2023/03/18 07:10:55;;;;;;;26.40;19.70;;;;;;;7.82;43.39;100449.79;109955;1267;21977;-84
2023/03/18 07:13:27;;;;;;;25.80;19.20;;;;;;;7.98;42.15;100449.02;110435;1267;21993;-76
2023/03/18 07:16:01;;;;;;;24.50;16.70;;;;;;;8.02;41.26;100453.96;110075;1267;21977;-77
2023/03/18 07:18:36;;;;;;;25.60;16.70;;;;;;;8.20;42.00;100453.66;109164;1270;23623;-76
2023/03/18 07:21:05;;;;;;;24.20;16.20;;;;;;;8.43;41.25;100455.33;109181;1272;22767;-76
2023/03/18 07:23:33;;;;;;;27.50;19.90;;;;;;;8.43;40.37;100453.08;110086;1265;22360;-75
2023/03/18 07:26:01;;;;;;;28.10;18.40;;;;;;;8.41;40.17;100447.58;110159;1265;22371;-77
2023/03/18 07:28:29;;;;;;;25.20;17.70;;;;;;;8.51;40.32;100448.70;110087;1265;22057;-76
2023/03/18 07:30:57;;;;;;;25.80;16.90;;;;;;;8.69;40.28;100450.47;110524;1265;21971;-77
2023/03/18 07:33:26;;;;;;;24.30;16.90;;;;;;;8.90;39.90;100455.06;110420;1256;23728;-75
2023/03/18 07:35:57;;;;;;;22.60;16.50;;;;;;;9.09;39.62;100453.27;110492;1260;21979;-76
2023/03/18 07:38:26;;;;;;;24.40;17.70;;;;;;;9.23;39.38;100448.34;110707;1260;21970;-77
2023/03/18 07:40:55;;;;;;;24.50;16.30;;;;;;;9.47;39.33;100450.20;110742;1260;22528;-81
2023/03/18 07:43:25;;;;;;;22.20;17.00;;;;;;;9.68;38.97;100447.29;110968;1260;21995;-80
2023/03/18 07:46:04;;;;;;;24.90;15.60;;;;;;;9.85;38.58;100448.12;110872;1260;22348;-82
2023/03/18 07:48:33;;;;;;;28.70;16.90;;;;;;;10.01;38.14;100452.27;110840;1260;21940;-79
2023/03/18 07:51:14;;;;;;;23.10;16.40;;;;;;;10.06;37.91;100453.33;110779;1260;21993;-81
2023/03/18 07:53:52;;;;;;;23.10;18.00;;;;;;;10.03;37.57;100451.69;110964;1259;21963;-79
2023/03/18 07:56:29;;;;;;;24.10;16.30;;;;;;;10.06;37.58;100457.50;110975;1260;21966;-80
2023/03/18 07:59:09;;;;;;;21.40;16.80;;;;;;;10.18;37.69;100457.59;111009;1260;21988;-80
2023/03/18 08:01:41;;;;;;;20.50;13.90;;;;;;;10.43;37.98;100458.66;110844;1259;21974;-79
2023/03/18 08:04:13;;;;;;;16.80;13.20;;;;;;;10.74;37.53;100458.44;110028;1266;22152;-79
2023/03/18 08:06:48;;;;;;;19.40;14.40;;;;;;;11.02;36.81;100457.90;110061;1265;22923;-79
2023/03/18 08:09:27;;;;;;;26.70;18.70;;;;;;;11.26;36.61;100451.23;109759;1266;21973;-82
2023/03/18 08:12:03;;;;;;;16.90;12.60;;;;;;;11.56;36.14;100453.38;110287;1265;21977;-79
2023/03/18 08:14:42;;;;;;;18.10;13.10;;;;;;;11.67;34.70;100448.55;110020;1266;23034;-79
2023/03/18 08:17:19;;;;;;;14.60;11.90;;;;;;;11.76;34.94;100444.89;110396;1262;22176;-79
2023/03/18 08:19:56;;;;;;;21.30;11.90;;;;;;;11.95;34.52;100445.73;109801;1265;21979;-81
2023/03/18 08:22:32;;;;;;;;;;;;;;;12.03;33.94;100445.02;110400;1260;22006;-81
2023/03/18 08:25:07;;;;;;;19.20;13.20;;;;;;;11.96;34.18;100445.00;110632;1260;22282;-81
2023/03/18 08:27:41;;;;;;;20.10;12.10;;;;;;;12.10;33.84;100447.90;110624;1259;23615;-80
2023/03/18 08:30:17;;;;;;;15.70;13.20;;;;;;;12.16;33.85;100444.48;110944;1260;23043;-78
2023/03/18 08:32:58;;;;;;;19.80;13.30;;;;;;;12.23;33.52;100443.33;110514;1260;23065;-79
2023/03/18 08:35:44;;;;;;;16.50;11.70;;;;;;;12.21;33.37;100446.35;110248;1265;21986;-79
2023/03/18 08:38:32;;;;;;;17.20;10.90;;;;;;;12.27;33.41;100441.74;110309;1266;21976;-81
2023/03/18 08:41:08;;;;;;;14.80;10.00;;;;;;;12.25;33.43;100442.17;110046;1260;22045;-78
2023/03/18 08:43:43;;;;;;;16.10;11.60;;;;;;;12.29;33.39;100440.80;110479;1265;21974;-80
2023/03/18 08:46:17;;;;;;;13.90;10.50;;;;;;;12.43;33.63;100443.66;110230;1266;22045;-80
2023/03/18 08:48:55;;;;;;;17.50;11.90;;;;;;;12.61;33.28;100448.98;110166;1262;21966;-78
2023/03/18 08:51:34;;;;;;;16.60;11.30;;;;;;;12.74;33.03;100449.98;110423;1259;23103;-79
2023/03/18 08:54:16;;;;;;;18.20;14.70;;;;;;;12.91;33.22;100449.88;111000;1260;22034;-79
2023/03/18 08:56:51;;;;;;;20.30;16.30;;;;;;;13.25;33.26;100447.80;110771;1260;21979;-80
2023/03/18 08:59:52;;;;;;;20.30;15.90;;;;;;;13.47;32.48;100450.08;110731;1260;21959;-80
2023/03/18 09:02:26;;;;;;;19.30;11.00;;;;;;;13.44;31.51;100447.27;110688;1260;22435;-79
2023/03/18 09:04:55;;;;;;;;;;;;;;;13.42;31.90;100445.45;110707;1260;23730;-78
2023/03/18 09:07:31;;;;;;;19.80;12.30;;;;;;;13.53;32.36;100444.23;110244;1266;21981;-78
2023/03/18 09:10:03;;;;;;;16.40;10.80;;;;;;;13.83;32.12;100441.84;109941;1266;21973;-79
2023/03/18 09:12:38;;;;;;;11.50;8.60;;;;;;;13.95;31.21;100440.03;110251;1266;21751;-78
2023/03/18 09:15:11;;;;;;;13.00;10.40;;;;;;;13.77;30.35;100436.54;110476;1265;23733;-79
2023/03/18 09:17:45;;;;;;;12.90;9.90;;;;;;;13.68;31.17;100438.05;110338;1265;21981;-80
2023/03/18 09:20:39;;;;;;;11.70;10.10;;;;;;;13.93;31.89;100435.42;110285;1266;21973;-80
2023/03/18 09:23:16;;;;;;;12.00;8.20;;;;;;;14.25;31.42;100437.13;110080;1265;21974;-79
2023/03/18 09:25:58;;;;;;;22.60;17.70;;;;;;;14.31;30.44;100436.79;110608;1259;23580;-79
2023/03/18 09:28:32;;;;;;;16.30;11.10;;;;;;;14.21;30.34;100438.02;110756;1260;23648;-80
2023/03/18 09:31:01;;;;;;;14.00;10.00;;;;;;;14.26;30.87;100441.15;110797;1260;21966;-78
2023/03/18 09:33:42;;;;;;;12.50;9.20;;;;;;;14.33;30.70;100442.30;110717;1260;22002;-79
2023/03/18 09:36:12;;;;;;;19.10;15.80;;;;;;;14.33;30.88;100441.98;111092;1248;21972;-79
2023/03/18 09:38:43;;;;;;;10.00;8.70;;;;;;;14.43;30.80;100443.03;110821;1260;21963;-77
2023/03/18 09:41:11;;;;;;;13.90;8.80;;;;;;;14.31;29.99;100440.65;110832;1260;21972;-78
2023/03/18 09:44:23;;;;;;;12.30;9.00;;;;;;;14.18;30.44;100440.30;110751;1249;21963;-79
2023/03/18 09:47:26;;;;;;;11.40;9.20;;;;;;;14.15;30.81;100437.44;110166;1267;23887;-80
2023/03/18 09:50:10;;;;;;;13.50;8.40;;;;;;;14.31;30.63;100433.65;110466;1267;24370;-79
2023/03/18 09:53:23;;;;;;;12.50;10.50;;;;;;;14.49;30.51;100430.27;110288;1266;21979;-78
2023/03/18 09:56:01;;;;;;;9.20;7.20;;;;;;;14.67;29.79;100430.95;109055;1275;22133;-77
2023/03/18 09:58:49;;;;;;;7.90;6.50;;;;;;;14.71;29.50;100431.59;109140;1275;23043;-79
2023/03/18 10:01:25;;;;;;;;;;;;;;;14.89;29.56;100423.25;109217;1275;23721;-77
2023/03/18 10:04:15;;;;;;;13.30;6.80;;;;;;;15.02;29.37;100422.71;109160;1268;22152;-77
2023/03/18 10:06:52;;;;;;;12.70;8.00;;;;;;;15.34;29.36;100424.77;109247;1275;21987;-77
2023/03/18 10:09:58;;;;;;;13.30;8.30;;;;;;;15.59;28.60;100421.78;109078;1275;22005;-78
2023/03/18 10:12:57;;;;;;;11.40;9.10;;;;;;;15.81;28.58;100422.52;108902;1275;22020;-78
2023/03/18 10:15:45;;;;;;;21.80;8.70;;;;;;;16.07;28.09;100423.09;109010;1275;23624;-78
2023/03/18 10:18:38;;;;;;;13.60;7.00;;;;;;;16.30;27.47;100421.14;109021;1269;23062;-80
2023/03/18 10:21:34;;;;;;;13.80;8.60;;;;;;;16.53;27.21;100418.54;108984;1281;22040;-79
2023/03/18 10:24:28;;;;;;;12.70;8.70;;;;;;;16.87;26.94;100421.38;109220;1274;23691;-82
2023/03/18 10:27:18;;;;;;;8.60;7.40;;;;;;;17.13;26.92;100423.23;109319;1274;22542;-79
2023/03/18 10:30:02;;;;;;;11.50;7.90;;;;;;;17.33;26.92;100419.66;109199;1274;23042;-79
2023/03/18 10:33:00;;;;;;;11.60;8.50;;;;;;;17.76;26.86;100418.65;109535;1267;23009;-79
2023/03/18 10:35:42;;;;;;;9.70;7.20;;;;;;;18.09;26.03;100421.21;110307;1266;22459;-77
2023/03/18 10:38:43;;;;;;;21.50;10.80;;;;;;;18.16;25.30;100421.75;110352;1266;22017;-80
2023/03/18 10:41:42;;;;;;;22.10;9.60;;;;;;;18.13;25.34;100415.27;110428;1265;23702;-78
2023/03/18 10:44:32;;;;;;;11.40;7.20;;;;;;;18.09;25.02;100415.55;110132;1266;22987;-78
2023/03/18 10:47:44;;;;;;;8.80;7.50;;;;;;;17.91;25.04;100411.10;110153;1266;23623;-78
2023/03/18 10:50:22;;;;;;;10.10;8.50;;;;;;;17.75;25.24;100406.91;108752;1279;24445;-80
2023/03/18 10:53:45;;;;;;;11.40;9.80;;;;;;;17.88;25.81;100407.27;108890;1274;22762;-78
2023/03/18 10:56:19;;;;;;;9.00;8.10;;;;;;;18.12;25.53;100410.59;108417;1286;22004;-76
2023/03/18 10:58:55;;;;;;;11.30;7.60;;;;;;;18.23;25.37;100414.23;108373;1286;23727;-77
2023/03/18 11:01:34;;;;;;;10.20;7.60;;;;;;;17.90;24.88;100414.35;108528;1285;23845;-77
2023/03/18 11:04:17;;;;;;;10.60;7.80;;;;;;;17.29;25.31;100409.20;108281;1283;21981;-79
2023/03/18 11:06:57;;;;;;;8.60;7.30;;;;;;;16.90;25.77;100408.31;108390;1285;22003;-78
2023/03/18 11:09:42;;;;;;;10.40;8.10;;;;;;;16.50;25.84;100408.88;108641;1279;21995;-79
2023/03/18 11:12:29;;;;;;;21.60;15.40;;;;;;;16.11;26.15;100406.86;108720;1279;24335;-77
2023/03/18 11:15:13;;;;;;;13.60;10.60;;;;;;;15.74;26.59;100405.66;108651;1279;23838;-78
2023/03/18 11:18:01;;;;;;;9.90;8.10;;;;;;;15.60;27.00;100405.09;108786;1273;22087;-78
2023/03/18 11:20:44;;;;;;;10.00;7.60;;;;;;;15.52;27.40;100401.34;109105;1274;22937;-77
2023/03/18 11:23:48;;;;;;;14.80;9.10;;;;;;;15.45;27.39;100398.39;109232;1271;23760;-78
2023/03/18 11:26:27;;;;;;;11.10;8.20;;;;;;;15.30;27.48;100395.89;109273;1269;22037;-78
2023/03/18 11:28:59;;;;;;;10.80;7.80;;;;;;;15.17;27.54;100395.23;109901;1269;21978;-78
2023/03/18 11:31:53;;;;;;;10.70;8.10;;;;;;;15.02;27.64;100393.45;109850;1260;22169;-80
2023/03/18 11:34:31;;;;;;;15.60;9.20;;;;;;;14.71;27.88;100391.66;110871;1260;21969;-79
2023/03/18 11:37:09;;;;;;;9.30;8.10;;;;;;;14.56;28.35;100392.95;110830;1253;22061;-80
2023/03/18 11:39:47;;;;;;;8.90;8.00;;;;;;;14.49;28.54;100387.70;110419;1260;21952;-78
2023/03/18 11:42:23;;;;;;;13.70;8.40;;;;;;;14.51;28.73;100387.27;110624;1260;22020;-77
2023/03/18 11:44:57;;;;;;;9.20;8.30;;;;;;;14.52;28.70;100386.86;110648;1260;21976;-78
2023/03/18 11:47:37;;;;;;;10.50;7.70;;;;;;;14.45;28.77;100387.93;110749;1260;22133;-77
2023/03/18 11:50:29;;;;;;;16.40;9.50;;;;;;;14.43;28.88;100385.41;110303;1265;22039;-77
2023/03/18 11:53:48;;;;;;;11.60;8.40;;;;;;;14.37;28.90;100378.04;110028;1265;21972;-75
2023/03/18 11:56:36;;;;;;;12.40;8.70;;;;;;;14.21;29.09;100377.65;110167;1253;23071;-75
2023/03/18 11:59:32;;;;;;;9.80;8.50;;;;;;;14.17;29.35;100374.70;110390;1265;23003;-75
2023/03/18 12:02:27;;;;;;;10.10;8.30;;;;;;;14.26;29.45;100375.48;110406;1265;21968;-76
2023/03/18 12:05:11;;;;;;;11.50;8.80;;;;;;;14.41;29.54;100377.45;110296;1264;22006;-78
2023/03/18 12:08:14;;;;;;;12.50;9.00;;;;;;;14.58;29.59;100377.61;110360;1259;23222;-79